sensor_id;sensor_type;location;lat;lon;timestamp;pressure;altitude;pressure_sealevel;temperature;humidity
70546;BME280;58098;51.680;5.134;2023-04-26T00:01:39;102020.94;;;2.04;100.00
70546;BME280;58098;51.680;5.134;2023-04-26T00:04:04;102017.66;;;1.98;100.00
70546;BME280;58098;51.680;5.134;2023-04-26T00:06:29;102017.72;;;1.95;100.00
70546;BME280;58098;51.680;5.134;2023-04-26T00:08:55;102022.84;;;1.97;100.00
70546;BME280;58098;51.680;5.134;2023-04-26T00:11:20;102025.50;;;1.92;100.00
70546;BME280;58098;51.680;5.134;2023-04-26T00:13:47;102020.44;;;1.89;100.00
70546;BME280;58098;51.680;5.134;2023-04-26T00:16:13;102009.44;;;1.83;100.00
70546;BME280;58098;51.680;5.134;2023-04-26T00:18:38;102008.63;;;1.82;100.00
70546;BME280;58098;51.680;5.134;2023-04-26T00:21:04;102022.06;;;1.93;100.00
70546;BME280;58098;51.680;5.134;2023-04-26T00:23:29;102006.75;;;1.87;100.00
70546;BME280;58098;51.680;5.134;2023-04-26T00:25:55;102013.66;;;1.85;100.00
70546;BME280;58098;51.680;5.134;2023-04-26T00:28:21;101998.41;;;1.79;100.00
70546;BME280;58098;51.680;5.134;2023-04-26T00:30:46;102020.50;;;1.86;100.00
70546;BME280;58098;51.680;5.134;2023-04-26T00:33:13;102010.53;;;1.73;100.00
70546;BME280;58098;51.680;5.134;2023-04-26T00:35:39;101998.81;;;1.61;100.00
70546;BME280;58098;51.680;5.134;2023-04-26T00:38:04;102012.31;;;1.71;100.00
70546;BME280;58098;51.680;5.134;2023-04-26T00:40:30;102025.16;;;1.72;100.00
70546;BME280;58098;51.680;5.134;2023-04-26T00:42:56;102021.72;;;1.72;100.00
70546;BME280;58098;51.680;5.134;2023-04-26T00:45:22;102020.81;;;1.73;100.00
70546;BME280;58098;51.680;5.134;2023-04-26T00:47:47;102024.34;;;1.70;100.00
70546;BME280;58098;51.680;5.134;2023-04-26T00:50:13;102020.94;;;1.68;100.00
70546;BME280;58098;51.680;5.134;2023-04-26T00:52:38;102005.78;;;1.56;100.00
70546;BME280;58098;51.680;5.134;2023-04-26T00:55:04;102026.88;;;1.72;100.00
70546;BME280;58098;51.680;5.134;2023-04-26T00:57:33;102015.94;;;1.62;100.00
70546;BME280;58098;51.680;5.134;2023-04-26T00:59:58;101996.59;;;1.46;100.00
70546;BME280;58098;51.680;5.134;2023-04-26T01:02:24;102000.13;;;1.42;100.00
70546;BME280;58098;51.680;5.134;2023-04-26T01:04:49;102012.69;;;1.54;100.00
70546;BME280;58098;51.680;5.134;2023-04-26T01:07:15;102005.03;;;1.53;100.00
70546;BME280;58098;51.680;5.134;2023-04-26T01:09:41;102000.06;;;1.45;100.00
70546;BME280;58098;51.680;5.134;2023-04-26T01:12:08;102024.91;;;1.45;100.00
70546;BME280;58098;51.680;5.134;2023-04-26T01:14:34;102019.94;;;1.37;100.00
70546;BME280;58098;51.680;5.134;2023-04-26T01:17:01;102020.09;;;1.29;100.00
70546;BME280;58098;51.680;5.134;2023-04-26T01:19:27;102017.69;;;1.23;100.00
70546;BME280;58098;51.680;5.134;2023-04-26T01:21:53;102020.41;;;1.16;100.00
70546;BME280;58098;51.680;5.134;2023-04-26T01:24:18;102007.84;;;1.02;100.00
70546;BME280;58098;51.680;5.134;2023-04-26T01:26:44;102017.25;;;1.03;100.00
70546;BME280;58098;51.680;5.134;2023-04-26T01:29:17;102010.59;;;0.95;100.00
70546;BME280;58098;51.680;5.134;2023-04-26T01:31:43;102011.56;;;0.89;100.00
70546;BME280;58098;51.680;5.134;2023-04-26T01:34:09;102033.59;;;1.01;100.00
70546;BME280;58098;51.680;5.134;2023-04-26T01:36:34;102036.19;;;0.98;100.00
70546;BME280;58098;51.680;5.134;2023-04-26T01:39:00;102034.53;;;0.97;100.00
70546;BME280;58098;51.680;5.134;2023-04-26T01:41:25;102029.44;;;0.94;100.00
70546;BME280;58098;51.680;5.134;2023-04-26T01:43:50;102015.75;;;0.95;100.00
70546;BME280;58098;51.680;5.134;2023-04-26T01:46:16;102003.06;;;0.86;100.00
70546;BME280;58098;51.680;5.134;2023-04-26T01:48:41;102021.59;;;1.01;100.00
70546;BME280;58098;51.680;5.134;2023-04-26T01:51:06;102011.31;;;1.01;100.00
70546;BME280;58098;51.680;5.134;2023-04-26T01:53:32;102026.69;;;1.03;100.00
70546;BME280;58098;51.680;5.134;2023-04-26T01:56:01;102012.22;;;0.99;100.00
70546;BME280;58098;51.680;5.134;2023-04-26T01:58:27;102014.13;;;0.89;100.00
70546;BME280;58098;51.680;5.134;2023-04-26T02:00:52;102016.78;;;0.85;100.00
70546;BME280;58098;51.680;5.134;2023-04-26T02:03:17;102011.72;;;0.82;100.00
70546;BME280;58098;51.680;5.134;2023-04-26T02:05:43;102027.06;;;0.85;100.00
70546;BME280;58098;51.680;5.134;2023-04-26T02:08:08;102016.16;;;0.74;100.00
70546;BME280;58098;51.680;5.134;2023-04-26T02:10:33;102023.09;;;0.68;100.00
70546;BME280;58098;51.680;5.134;2023-04-26T02:12:59;102035.03;;;0.71;100.00
70546;BME280;58098;51.680;5.134;2023-04-26T02:15:24;102024.09;;;0.61;100.00
70546;BME280;58098;51.680;5.134;2023-04-26T02:17:49;102031.78;;;0.63;100.00
70546;BME280;58098;51.680;5.134;2023-04-26T02:20:15;102012.28;;;0.51;100.00
70546;BME280;58098;51.680;5.134;2023-04-26T02:22:40;102018.28;;;0.53;100.00
70546;BME280;58098;51.680;5.134;2023-04-26T02:25:06;102005.44;;;0.53;100.00
70546;BME280;58098;51.680;5.134;2023-04-26T02:27:32;102009.72;;;0.53;100.00
70546;BME280;58098;51.680;5.134;2023-04-26T02:29:58;102019.03;;;0.57;100.00
70546;BME280;58098;51.680;5.134;2023-04-26T02:32:23;102025.88;;;0.56;100.00
70546;BME280;58098;51.680;5.134;2023-04-26T02:34:48;102014.84;;;0.51;100.00
70546;BME280;58098;51.680;5.134;2023-04-26T02:37:14;102016.63;;;0.49;100.00
70546;BME280;58098;51.680;5.134;2023-04-26T02:39:39;102007.38;;;0.39;100.00
70546;BME280;58098;51.680;5.134;2023-04-26T02:42:09;102009.13;;;0.37;100.00
70546;BME280;58098;51.680;5.134;2023-04-26T02:44:35;102001.50;;;0.34;100.00
70546;BME280;58098;51.680;5.134;2023-04-26T02:47:00;102016.78;;;0.40;100.00
70546;BME280;58098;51.680;5.134;2023-04-26T02:49:26;101993.88;;;0.30;100.00
70546;BME280;58098;51.680;5.134;2023-04-26T02:51:51;102010.84;;;0.37;100.00
70546;BME280;58098;51.680;5.134;2023-04-26T02:54:17;101998.88;;;0.37;100.00
70546;BME280;58098;51.680;5.134;2023-04-26T02:56:42;101986.16;;;0.31;100.00
70546;BME280;58098;51.680;5.134;2023-04-26T02:59:07;101994.56;;;0.39;100.00
70546;BME280;58098;51.680;5.134;2023-04-26T03:01:33;101991.13;;;0.40;100.00
70546;BME280;58098;51.680;5.134;2023-04-26T03:03:58;101990.31;;;0.37;100.00
70546;BME280;58098;51.680;5.134;2023-04-26T03:06:23;101986.00;;;0.40;100.00
70546;BME280;58098;51.680;5.134;2023-04-26T03:08:49;101996.16;;;0.45;100.00
70546;BME280;58098;51.680;5.134;2023-04-26T03:11:14;102000.50;;;0.43;100.00
70546;BME280;58098;51.680;5.134;2023-04-26T03:13:39;101986.25;;;0.27;100.00
70546;BME280;58098;51.680;5.134;2023-04-26T03:16:05;101999.00;;;0.30;100.00
70546;BME280;58098;51.680;5.134;2023-04-26T03:18:30;101991.53;;;0.19;100.00
70546;BME280;58098;51.680;5.134;2023-04-26T03:20:56;101995.69;;;0.25;100.00
70546;BME280;58098;51.680;5.134;2023-04-26T03:23:21;101993.25;;;0.17;100.00
70546;BME280;58098;51.680;5.134;2023-04-26T03:25:50;101998.31;;;0.22;100.00
70546;BME280;58098;51.680;5.134;2023-04-26T03:28:15;101987.38;;;0.12;100.00
70546;BME280;58098;51.680;5.134;2023-04-26T03:30:41;101977.22;;;0.06;100.00
70546;BME280;58098;51.680;5.134;2023-04-26T03:33:06;101986.53;;;0.12;100.00
70546;BME280;58098;51.680;5.134;2023-04-26T03:35:31;101978.97;;;0.03;100.00
70546;BME280;58098;51.680;5.134;2023-04-26T03:37:57;101985.72;;;0.10;100.00
70546;BME280;58098;51.680;5.134;2023-04-26T03:40:22;101987.28;;;0.15;100.00
70546;BME280;58098;51.680;5.134;2023-04-26T03:42:47;101976.34;;;0.07;100.00
70546;BME280;58098;51.680;5.134;2023-04-26T03:45:12;101990.75;;;0.13;100.00
70546;BME280;58098;51.680;5.134;2023-04-26T03:47:38;101976.47;;;-0.02;100.00
70546;BME280;58098;51.680;5.134;2023-04-26T03:50:03;101989.22;;;0.04;100.00
70546;BME280;58098;51.680;5.134;2023-04-26T03:52:29;101988.50;;;-0.04;100.00
70546;BME280;58098;51.680;5.134;2023-04-26T03:54:54;101993.56;;;-0.01;100.00
70546;BME280;58098;51.680;5.134;2023-04-26T03:57:20;101986.03;;;-0.10;100.00
70546;BME280;58098;51.680;5.134;2023-04-26T03:59:45;101986.88;;;-0.08;100.00
70546;BME280;58098;51.680;5.134;2023-04-26T04:02:10;101997.06;;;-0.05;100.00
70546;BME280;58098;51.680;5.134;2023-04-26T04:04:36;101989.47;;;-0.11;100.00
70546;BME280;58098;51.680;5.134;2023-04-26T04:07:01;101991.19;;;-0.10;100.00
70546;BME280;58098;51.680;5.134;2023-04-26T04:09:27;101986.94;;;-0.14;100.00
70546;BME280;58098;51.680;5.134;2023-04-26T04:11:52;101979.38;;;-0.20;100.00
70546;BME280;58098;51.680;5.134;2023-04-26T04:14:17;101984.38;;;-0.14;100.00
70546;BME280;58098;51.680;5.134;2023-04-26T04:16:42;101992.00;;;-0.10;100.00
70546;BME280;58098;51.680;5.134;2023-04-26T04:19:08;101996.28;;;-0.09;100.00
70546;BME280;58098;51.680;5.134;2023-04-26T04:21:33;101986.06;;;-0.12;100.00
70546;BME280;58098;51.680;5.134;2023-04-26T04:23:59;101970.75;;;-0.15;100.00
70546;BME280;58098;51.680;5.134;2023-04-26T04:26:25;101981.75;;;-0.10;100.00
70546;BME280;58098;51.680;5.134;2023-04-26T04:28:50;101984.31;;;-0.10;100.00
70546;BME280;58098;51.680;5.134;2023-04-26T04:31:16;101967.31;;;-0.15;100.00
70546;BME280;58098;51.680;5.134;2023-04-26T04:33:41;101987.59;;;0.00;100.00
70546;BME280;58098;51.680;5.134;2023-04-26T04:36:07;101994.34;;;0.04;100.00
70546;BME280;58098;51.680;5.134;2023-04-26T04:38:32;101989.31;;;-0.02;100.00
70546;BME280;58098;51.680;5.134;2023-04-26T04:40:57;101997.69;;;0.08;100.00
70546;BME280;58098;51.680;5.134;2023-04-26T04:43:23;101983.28;;;0.02;100.00
70546;BME280;58098;51.680;5.134;2023-04-26T04:45:49;101985.75;;;0.05;100.00
70546;BME280;58098;51.680;5.134;2023-04-26T04:48:14;101997.56;;;0.17;100.00
70546;BME280;58098;51.680;5.134;2023-04-26T04:50:40;101988.13;;;0.17;100.00
70546;BME280;58098;51.680;5.134;2023-04-26T04:53:08;101996.53;;;0.25;100.00
70546;BME280;58098;51.680;5.134;2023-04-26T04:55:34;101999.81;;;0.33;100.00
70546;BME280;58098;51.680;5.134;2023-04-26T04:58:01;101987.84;;;0.34;100.00
70546;BME280;58098;51.680;5.134;2023-04-26T05:00:28;101992.81;;;0.41;100.00
70546;BME280;58098;51.680;5.134;2023-04-26T05:02:53;102002.09;;;0.48;100.00
70546;BME280;58098;51.680;5.134;2023-04-26T05:05:18;101988.41;;;0.48;100.00
70546;BME280;58098;51.680;5.134;2023-04-26T05:07:43;101990.75;;;0.58;100.00
70546;BME280;58098;51.680;5.134;2023-04-26T05:10:09;102005.91;;;0.72;100.00
70546;BME280;58098;51.680;5.134;2023-04-26T05:12:35;101982.84;;;0.71;100.00
70546;BME280;58098;51.680;5.134;2023-04-26T05:15:01;101989.50;;;0.79;100.00
70546;BME280;58098;51.680;5.134;2023-04-26T05:17:26;102007.13;;;0.96;100.00
70546;BME280;58098;51.680;5.134;2023-04-26T05:19:51;101991.66;;;0.99;100.00
70546;BME280;58098;51.680;5.134;2023-04-26T05:22:16;102003.38;;;1.12;100.00
70546;BME280;58098;51.680;5.134;2023-04-26T05:24:45;101995.53;;;1.18;100.00
70546;BME280;58098;51.680;5.134;2023-04-26T05:27:11;101997.03;;;1.28;100.00
70546;BME280;58098;51.680;5.134;2023-04-26T05:29:37;101989.16;;;1.34;100.00
70546;BME280;58098;51.680;5.134;2023-04-26T05:32:02;102003.34;;;1.52;100.00
70546;BME280;58098;51.680;5.134;2023-04-26T05:34:28;101991.28;;;1.54;100.00
70546;BME280;58098;51.680;5.134;2023-04-26T05:36:53;102009.03;;;1.64;100.00
70546;BME280;58098;51.680;5.134;2023-04-26T05:39:18;101986.03;;;1.58;100.00
70546;BME280;58098;51.680;5.134;2023-04-26T05:41:45;101998.56;;;1.72;100.00
70546;BME280;58098;51.680;5.134;2023-04-26T05:44:12;102009.53;;;1.80;100.00
70546;BME280;58098;51.680;5.134;2023-04-26T05:46:37;102010.09;;;1.91;100.00
70546;BME280;58098;51.680;5.134;2023-04-26T05:49:03;102021.50;;;2.15;100.00
70546;BME280;58098;51.680;5.134;2023-04-26T05:51:28;102020.22;;;2.32;100.00
70546;BME280;58098;51.680;5.134;2023-04-26T05:53:53;102017.06;;;2.53;100.00
70546;BME280;58098;51.680;5.134;2023-04-26T05:56:19;102018.22;;;2.74;100.00
70546;BME280;58098;51.680;5.134;2023-04-26T05:58:45;102012.53;;;2.92;100.00
70546;BME280;58098;51.680;5.134;2023-04-26T06:01:10;102015.31;;;3.15;100.00
70546;BME280;58098;51.680;5.134;2023-04-26T06:03:36;102014.84;;;3.30;100.00
70546;BME280;58098;51.680;5.134;2023-04-26T06:06:02;102022.00;;;3.49;100.00
70546;BME280;58098;51.680;5.134;2023-04-26T06:08:27;102011.53;;;3.55;100.00
70546;BME280;58098;51.680;5.134;2023-04-26T06:10:53;102012.22;;;3.60;100.00
70546;BME280;58098;51.680;5.134;2023-04-26T06:13:18;102026.25;;;3.77;100.00
70546;BME280;58098;51.680;5.134;2023-04-26T06:15:43;102015.84;;;3.80;100.00
70546;BME280;58098;51.680;5.134;2023-04-26T06:18:09;102028.34;;;3.94;100.00
70546;BME280;58098;51.680;5.134;2023-04-26T06:20:34;102041.41;;;4.14;100.00
70546;BME280;58098;51.680;5.134;2023-04-26T06:23:00;102035.16;;;4.21;100.00
70546;BME280;58098;51.680;5.134;2023-04-26T06:25:25;102042.19;;;4.42;100.00
70546;BME280;58098;51.680;5.134;2023-04-26T06:27:50;102046.53;;;4.65;100.00
70546;BME280;58098;51.680;5.134;2023-04-26T06:30:16;102046.00;;;4.80;100.00
70546;BME280;58098;51.680;5.134;2023-04-26T06:32:41;102048.94;;;4.94;100.00
70546;BME280;58098;51.680;5.134;2023-04-26T06:35:07;102043.63;;;4.99;100.00
70546;BME280;58098;51.680;5.134;2023-04-26T06:37:33;102042.31;;;5.10;100.00
70546;BME280;58098;51.680;5.134;2023-04-26T06:39:58;102049.34;;;5.30;100.00
70546;BME280;58098;51.680;5.134;2023-04-26T06:42:24;102047.66;;;5.29;100.00
70546;BME280;58098;51.680;5.134;2023-04-26T06:44:49;102054.91;;;5.43;100.00
70546;BME280;58098;51.680;5.134;2023-04-26T06:47:14;102044.84;;;5.35;100.00
70546;BME280;58098;51.680;5.134;2023-04-26T06:49:39;102056.94;;;5.56;100.00
70546;BME280;58098;51.680;5.134;2023-04-26T06:52:05;102045.25;;;5.46;100.00
70546;BME280;58098;51.680;5.134;2023-04-26T06:54:31;102054.78;;;5.67;100.00
70546;BME280;58098;51.680;5.134;2023-04-26T06:56:56;102047.66;;;5.72;100.00
70546;BME280;58098;51.680;5.134;2023-04-26T06:59:22;102048.91;;;5.85;100.00
70546;BME280;58098;51.680;5.134;2023-04-26T07:01:47;102046.81;;;5.95;100.00
70546;BME280;58098;51.680;5.134;2023-04-26T07:04:13;102046.63;;;5.99;100.00
70546;BME280;58098;51.680;5.134;2023-04-26T07:06:39;102065.88;;;6.14;100.00
70546;BME280;58098;51.680;5.134;2023-04-26T07:09:05;102055.13;;;6.23;100.00
70546;BME280;58098;51.680;5.134;2023-04-26T07:11:30;102056.19;;;6.39;100.00
70546;BME280;58098;51.680;5.134;2023-04-26T07:13:56;102061.19;;;6.64;100.00
70546;BME280;58098;51.680;5.134;2023-04-26T07:16:22;102061.28;;;6.81;100.00
70546;BME280;58098;51.680;5.134;2023-04-26T07:18:47;102034.59;;;6.98;100.00
70546;BME280;58098;51.680;5.134;2023-04-26T07:21:13;102037.13;;;7.37;100.00
70546;BME280;58098;51.680;5.134;2023-04-26T07:23:38;102034.44;;;7.57;100.00
70546;BME280;58098;51.680;5.134;2023-04-26T07:26:04;102049.63;;;7.83;100.00
70546;BME280;58098;51.680;5.134;2023-04-26T07:28:30;102041.97;;;7.80;100.00
70546;BME280;58098;51.680;5.134;2023-04-26T07:30:56;102025.31;;;7.84;100.00
70546;BME280;58098;51.680;5.134;2023-04-26T07:33:21;102048.09;;;7.96;100.00
70546;BME280;58098;51.680;5.134;2023-04-26T07:35:57;102051.19;;;8.04;100.00
70546;BME280;58098;51.680;5.134;2023-04-26T07:38:24;102058.50;;;7.96;100.00
70546;BME280;58098;51.680;5.134;2023-04-26T07:40:50;102043.50;;;7.84;100.00
70546;BME280;58098;51.680;5.134;2023-04-26T07:43:16;102047.72;;;7.86;100.00
70546;BME280;58098;51.680;5.134;2023-04-26T07:45:41;102042.28;;;7.74;100.00
70546;BME280;58098;51.680;5.134;2023-04-26T07:48:07;102063.25;;;7.69;100.00
70546;BME280;58098;51.680;5.134;2023-04-26T07:50:32;102058.84;;;7.53;100.00
70546;BME280;58098;51.680;5.134;2023-04-26T07:52:57;102055.06;;;7.60;100.00
70546;BME280;58098;51.680;5.134;2023-04-26T07:55:23;102060.16;;;7.80;100.00
70546;BME280;58098;51.680;5.134;2023-04-26T07:57:48;102059.31;;;8.15;100.00
70546;BME280;58098;51.680;5.134;2023-04-26T08:00:14;102055.41;;;8.24;100.00
70546;BME280;58098;51.680;5.134;2023-04-26T08:02:41;102060.88;;;8.18;100.00
70546;BME280;58098;51.680;5.134;2023-04-26T08:05:07;102080.91;;;8.51;100.00
70546;BME280;58098;51.680;5.134;2023-04-26T08:07:33;102072.47;;;8.63;100.00
70546;BME280;58098;51.680;5.134;2023-04-26T08:09:58;102044.88;;;8.77;100.00
70546;BME280;58098;51.680;5.134;2023-04-26T08:12:23;102066.81;;;9.21;100.00
70546;BME280;58098;51.680;5.134;2023-04-26T08:14:49;102060.88;;;9.50;100.00
70546;BME280;58098;51.680;5.134;2023-04-26T08:17:14;102074.31;;;9.43;100.00
70546;BME280;58098;51.680;5.134;2023-04-26T08:19:39;102058.69;;;9.27;100.00
70546;BME280;58098;51.680;5.134;2023-04-26T08:22:05;102069.28;;;9.24;100.00
70546;BME280;58098;51.680;5.134;2023-04-26T08:24:31;102085.44;;;8.98;100.00
70546;BME280;58098;51.680;5.134;2023-04-26T08:26:56;102073.16;;;8.67;100.00
70546;BME280;58098;51.680;5.134;2023-04-26T08:29:23;102076.47;;;8.36;100.00
70546;BME280;58098;51.680;5.134;2023-04-26T08:31:49;102089.25;;;8.41;100.00
70546;BME280;58098;51.680;5.134;2023-04-26T08:34:15;102082.31;;;8.23;100.00
70546;BME280;58098;51.680;5.134;2023-04-26T08:36:40;102074.50;;;8.23;100.00
70546;BME280;58098;51.680;5.134;2023-04-26T08:39:06;102073.25;;;8.31;100.00
70546;BME280;58098;51.680;5.134;2023-04-26T08:41:37;102081.81;;;8.50;100.00
70546;BME280;58098;51.680;5.134;2023-04-26T08:44:07;102084.13;;;8.56;100.00
70546;BME280;58098;51.680;5.134;2023-04-26T08:46:42;102083.13;;;8.59;100.00
70546;BME280;58098;51.680;5.134;2023-04-26T08:51:42;102082.56;;;8.35;100.00
70546;BME280;58098;51.680;5.134;2023-04-26T08:54:09;102077.09;;;8.41;100.00
70546;BME280;58098;51.680;5.134;2023-04-26T08:56:36;102082.56;;;8.52;100.00
70546;BME280;58098;51.680;5.134;2023-04-26T08:59:03;102071.69;;;8.61;100.00
70546;BME280;58098;51.680;5.134;2023-04-26T09:01:29;102073.97;;;8.85;100.00
70546;BME280;58098;51.680;5.134;2023-04-26T09:03:55;102071.28;;;9.19;100.00
70546;BME280;58098;51.680;5.134;2023-04-26T09:06:22;102056.69;;;9.63;100.00
70546;BME280;58098;51.680;5.134;2023-04-26T09:08:48;102052.78;;;9.86;100.00
70546;BME280;58098;51.680;5.134;2023-04-26T09:11:15;102057.41;;;10.12;100.00
70546;BME280;58098;51.680;5.134;2023-04-26T09:13:41;102057.97;;;10.02;100.00
70546;BME280;58098;51.680;5.134;2023-04-26T09:16:06;102053.63;;;9.86;100.00
70546;BME280;58098;51.680;5.134;2023-04-26T09:18:31;102050.09;;;9.87;100.00
70546;BME280;58098;51.680;5.134;2023-04-26T09:23:26;102061.06;;;10.82;100.00
70546;BME280;58098;51.680;5.134;2023-04-26T09:25:51;102059.47;;;11.21;100.00
70546;BME280;58098;51.680;5.134;2023-04-26T09:28:21;102074.19;;;11.22;100.00
70546;BME280;58098;51.680;5.134;2023-04-26T09:30:47;102051.53;;;11.23;100.00
70546;BME280;58098;51.680;5.134;2023-04-26T09:33:12;102075.97;;;11.22;100.00
70546;BME280;58098;51.680;5.134;2023-04-26T09:35:40;102064.50;;;11.24;100.00
70546;BME280;58098;51.680;5.134;2023-04-26T09:38:16;102080.56;;;11.18;100.00
70546;BME280;58098;51.680;5.134;2023-04-26T09:40:44;102071.63;;;10.94;100.00
70546;BME280;58098;51.680;5.134;2023-04-26T09:43:12;102071.41;;;10.83;100.00
70546;BME280;58098;51.680;5.134;2023-04-26T09:45:47;102066.38;;;10.94;100.00
70546;BME280;58098;51.680;5.134;2023-04-26T09:50:58;102065.38;;;10.97;100.00
70546;BME280;58098;51.680;5.134;2023-04-26T09:54:06;102074.97;;;11.10;100.00
70546;BME280;58098;51.680;5.134;2023-04-26T09:56:14;102068.59;;;11.00;100.00
70546;BME280;58098;51.680;5.134;2023-04-26T10:01:07;102072.63;;;11.20;100.00
70546;BME280;58098;51.680;5.134;2023-04-26T10:03:34;102049.03;;;11.21;100.00
70546;BME280;58098;51.680;5.134;2023-04-26T10:06:01;102075.84;;;11.52;100.00
70546;BME280;58098;51.680;5.134;2023-04-26T10:08:26;102061.66;;;11.42;100.00
70546;BME280;58098;51.680;5.134;2023-04-26T10:10:53;102070.41;;;11.55;100.00
70546;BME280;58098;51.680;5.134;2023-04-26T10:13:18;102077.88;;;11.75;100.00
70546;BME280;58098;51.680;5.134;2023-04-26T10:15:44;102068.53;;;11.57;100.00
70546;BME280;58098;51.680;5.134;2023-04-26T10:18:11;102065.63;;;11.75;100.00
70546;BME280;58098;51.680;5.134;2023-04-26T10:20:43;102047.03;;;11.66;100.00
70546;BME280;58098;51.680;5.134;2023-04-26T10:23:21;102064.69;;;12.03;100.00
70546;BME280;58098;51.680;5.134;2023-04-26T10:25:50;102062.97;;;12.41;100.00
70546;BME280;58098;51.680;5.134;2023-04-26T10:28:17;102071.06;;;12.51;100.00
70546;BME280;58098;51.680;5.134;2023-04-26T10:30:58;102057.88;;;12.90;100.00
70546;BME280;58098;51.680;5.134;2023-04-26T10:33:25;102069.22;;;13.16;100.00
70546;BME280;58098;51.680;5.134;2023-04-26T10:36:00;102065.41;;;13.20;100.00
70546;BME280;58098;51.680;5.134;2023-04-26T10:38:26;102056.09;;;13.16;100.00
70546;BME280;58098;51.680;5.134;2023-04-26T10:40:51;102066.06;;;13.11;100.00
70546;BME280;58098;51.680;5.134;2023-04-26T10:45:47;102065.34;;;13.58;100.00
70546;BME280;58098;51.680;5.134;2023-04-26T10:48:13;102069.72;;;13.57;100.00
70546;BME280;58098;51.680;5.134;2023-04-26T10:53:23;102036.75;;;13.66;100.00
70546;BME280;58098;51.680;5.134;2023-04-26T10:55:49;102041.69;;;13.21;100.00
70546;BME280;58098;51.680;5.134;2023-04-26T10:58:28;102041.81;;;13.20;100.00
70546;BME280;58098;51.680;5.134;2023-04-26T11:01:03;102046.53;;;13.02;100.00
70546;BME280;58098;51.680;5.134;2023-04-26T11:03:29;102044.03;;;13.26;100.00
70546;BME280;58098;51.680;5.134;2023-04-26T11:05:55;102035.47;;;13.71;100.00
70546;BME280;58098;51.680;5.134;2023-04-26T11:08:30;102045.69;;;14.57;100.00
70546;BME280;58098;51.680;5.134;2023-04-26T11:10:58;102034.03;;;14.94;100.00
70546;BME280;58098;51.680;5.134;2023-04-26T11:13:24;102034.34;;;15.45;100.00
70546;BME280;58098;51.680;5.134;2023-04-26T11:15:53;102013.28;;;15.34;100.00
70546;BME280;58098;51.680;5.134;2023-04-26T11:18:23;102019.53;;;14.55;100.00
70546;BME280;58098;51.680;5.134;2023-04-26T11:20:49;102015.28;;;13.84;100.00
70546;BME280;58098;51.680;5.134;2023-04-26T11:23:17;102003.75;;;13.27;100.00
70546;BME280;58098;51.680;5.134;2023-04-26T11:25:43;102019.59;;;13.00;100.00
70546;BME280;58098;51.680;5.134;2023-04-26T11:28:08;102004.75;;;13.13;100.00
70546;BME280;58098;51.680;5.134;2023-04-26T11:30:33;102005.44;;;13.28;100.00
70546;BME280;58098;51.680;5.134;2023-04-26T11:33:00;102009.25;;;13.11;100.00
70546;BME280;58098;51.680;5.134;2023-04-26T11:35:26;102010.13;;;13.36;100.00
70546;BME280;58098;51.680;5.134;2023-04-26T11:37:53;102000.44;;;13.12;100.00
70546;BME280;58098;51.680;5.134;2023-04-26T11:40:21;102006.94;;;13.07;94.30
70546;BME280;58098;51.680;5.134;2023-04-26T11:42:47;102018.69;;;12.64;100.00
70546;BME280;58098;51.680;5.134;2023-04-26T11:45:15;102022.47;;;12.85;100.00
70546;BME280;58098;51.680;5.134;2023-04-26T11:47:42;102024.78;;;12.77;81.17
70546;BME280;58098;51.680;5.134;2023-04-26T11:50:08;102021.50;;;13.11;100.00
70546;BME280;58098;51.680;5.134;2023-04-26T11:52:34;102024.63;;;13.52;100.00
70546;BME280;58098;51.680;5.134;2023-04-26T11:55:06;102017.25;;;13.81;100.00
70546;BME280;58098;51.680;5.134;2023-04-26T11:57:32;102016.78;;;14.11;100.00
70546;BME280;58098;51.680;5.134;2023-04-26T12:00:08;102016.41;;;14.39;97.06
70546;BME280;58098;51.680;5.134;2023-04-26T12:02:37;102007.28;;;14.21;94.54
70546;BME280;58098;51.680;5.134;2023-04-26T12:05:03;102026.94;;;14.50;100.00
70546;BME280;58098;51.680;5.134;2023-04-26T12:07:34;102028.81;;;14.37;100.00
70546;BME280;58098;51.680;5.134;2023-04-26T12:10:16;102011.91;;;13.82;100.00
70546;BME280;58098;51.680;5.134;2023-04-26T12:12:44;102008.94;;;13.40;96.75
70546;BME280;58098;51.680;5.134;2023-04-26T12:15:11;102018.16;;;13.45;100.00
70546;BME280;58098;51.680;5.134;2023-04-26T12:17:37;102011.06;;;14.17;100.00
70546;BME280;58098;51.680;5.134;2023-04-26T12:20:10;102025.75;;;14.43;100.00
70546;BME280;58098;51.680;5.134;2023-04-26T12:22:35;101999.13;;;13.78;100.00
70546;BME280;58098;51.680;5.134;2023-04-26T12:25:07;102005.88;;;13.69;100.00
70546;BME280;58098;51.680;5.134;2023-04-26T12:27:33;102019.09;;;13.92;100.00
70546;BME280;58098;51.680;5.134;2023-04-26T12:29:58;102024.84;;;13.97;97.79
70546;BME280;58098;51.680;5.134;2023-04-26T12:32:24;102018.97;;;14.28;100.00
70546;BME280;58098;51.680;5.134;2023-04-26T12:34:50;102006.88;;;14.49;100.00
70546;BME280;58098;51.680;5.134;2023-04-26T12:37:15;102018.50;;;14.23;87.18
70546;BME280;58098;51.680;5.134;2023-04-26T12:39:41;102014.75;;;14.14;92.64
70546;BME280;58098;51.680;5.134;2023-04-26T12:42:07;102012.34;;;14.46;100.00
70546;BME280;58098;51.680;5.134;2023-04-26T12:44:33;102016.03;;;14.32;89.16
70546;BME280;58098;51.680;5.134;2023-04-26T12:46:58;102021.59;;;14.74;96.49
70546;BME280;58098;51.680;5.134;2023-04-26T12:49:23;102001.53;;;15.60;100.00
70546;BME280;58098;51.680;5.134;2023-04-26T12:51:49;102017.97;;;15.84;88.69
70546;BME280;58098;51.680;5.134;2023-04-26T12:54:14;102016.19;;;15.73;93.69
70546;BME280;58098;51.680;5.134;2023-04-26T12:56:40;102013.41;;;15.54;90.10
70546;BME280;58098;51.680;5.134;2023-04-26T12:59:08;102018.75;;;15.53;79.81